createdAt,value
2018-11-23T00:00:41.003Z,101438.80
2018-11-23T00:03:09.120Z,101435.19
2018-11-23T00:05:37.170Z,101434.38
2018-11-23T00:08:05.307Z,101440.33
2018-11-23T00:10:33.618Z,101438.80
2018-11-23T00:13:01.707Z,101433.82
2018-11-23T00:15:29.871Z,101430.19
2018-11-23T00:17:57.967Z,101437.91
2018-11-23T00:20:27.297Z,101434.48
2018-11-23T00:22:55.369Z,101431.30
2018-11-23T00:25:24.479Z,101431.88
2018-11-23T00:27:53.014Z,101435.20
2018-11-23T00:30:22.474Z,101435.22
2018-11-23T00:32:50.914Z,101442.14
2018-11-23T00:35:38.614Z,101438.55
2018-11-23T00:38:06.736Z,101435.39
2018-11-23T00:40:34.838Z,101443.06
2018-11-23T00:43:02.884Z,101431.24
2018-11-23T00:45:30.977Z,101440.27
2018-11-23T00:47:59.634Z,101436.03
2018-11-23T00:50:46.877Z,101434.39
2018-11-23T00:53:14.960Z,101438.55
2018-11-23T00:55:43.010Z,101434.91
2018-11-23T00:58:11.110Z,101438.13
2018-11-23T01:00:39.155Z,101426.13
2018-11-23T01:03:07.246Z,101429.09
2018-11-23T01:05:35.303Z,101431.69
2018-11-23T01:08:03.367Z,101427.27
2018-11-23T01:10:31.542Z,101422.22
2018-11-23T01:12:59.751Z,101422.38
2018-11-23T01:15:27.711Z,101422.07
2018-11-23T01:17:55.717Z,101426.13
2018-11-23T01:20:24.977Z,101418.55
2018-11-23T01:22:53.547Z,101422.98
2018-11-23T01:25:22.570Z,101418.38
2018-11-23T01:27:51.569Z,101415.85
2018-11-23T01:30:24.086Z,101418.16
2018-11-23T01:32:52.152Z,101418.50
2018-11-23T01:35:20.223Z,101413.77
2018-11-23T01:37:48.279Z,101413.95
2018-11-23T01:40:35.493Z,101413.52
2018-11-23T01:43:03.551Z,101410.10
2018-11-23T01:45:31.614Z,101411.11
2018-11-23T01:47:59.653Z,101410.48
2018-11-23T01:50:29.086Z,101417.92
2018-11-23T01:52:57.312Z,101414.32
2018-11-23T01:55:25.804Z,101413.47
2018-11-23T01:57:53.893Z,101409.72
2018-11-23T02:00:23.288Z,101405.22
2018-11-23T02:02:52.258Z,101399.59
2018-11-23T02:05:20.278Z,101406.68
2018-11-23T02:07:48.373Z,101405.38
2018-11-23T02:10:17.215Z,101415.75
2018-11-23T02:12:45.318Z,101413.14
2018-11-23T02:15:15.230Z,101413.89
2018-11-23T02:17:43.436Z,101412.44
2018-11-23T02:20:13.109Z,101412.06
2018-11-23T02:22:41.199Z,101411.44
2018-11-23T02:25:09.281Z,101407.04
2018-11-23T02:27:37.306Z,101404.33
2018-11-23T02:30:26.487Z,101411.67
2018-11-23T02:32:54.511Z,101408.46
2018-11-23T02:35:22.605Z,101411.30
2018-11-23T02:37:50.644Z,101402.88
2018-11-23T02:40:19.673Z,101404.62
2018-11-23T02:42:47.841Z,101398.99
2018-11-23T02:45:35.515Z,101401.11
2018-11-23T02:48:03.593Z,101396.66
2018-11-23T02:50:31.625Z,101392.17
2018-11-23T02:52:59.717Z,101398.15
2018-11-23T02:55:27.765Z,101400.11
2018-11-23T02:57:55.877Z,101397.42
2018-11-23T03:00:23.917Z,101401.59
2018-11-23T03:02:52.028Z,101399.35
2018-11-23T03:05:21.392Z,101395.55
2018-11-23T03:07:49.459Z,101398.55
2018-11-23T03:10:17.872Z,101394.78
2018-11-23T03:12:46.773Z,101394.50
2018-11-23T03:15:16.433Z,101388.72
2018-11-23T03:17:45.186Z,101383.75
2018-11-23T03:20:15.116Z,101383.68
2018-11-23T03:22:43.182Z,101387.44
2018-11-23T03:25:12.049Z,101385.73
2018-11-23T03:27:40.108Z,101374.95
2018-11-23T03:30:11.032Z,101380.47
2018-11-23T03:32:39.274Z,101379.13
2018-11-23T03:35:07.409Z,101367.84
2018-11-23T03:37:35.489Z,101370.41
2018-11-23T03:40:03.505Z,101359.55
2018-11-23T03:42:31.589Z,101363.19
2018-11-23T03:44:59.640Z,101362.71
2018-11-23T03:47:27.922Z,101360.30
2018-11-23T03:49:56.008Z,101359.61
2018-11-23T03:52:24.109Z,101361.20
2018-11-23T03:54:52.192Z,101357.39
2018-11-23T03:57:20.244Z,101358.91
2018-11-23T03:59:48.328Z,101357.65
2018-11-23T04:02:16.571Z,101352.73
2018-11-23T04:04:44.652Z,101353.60
2018-11-23T04:07:12.700Z,101356.92
2018-11-23T04:09:40.776Z,101366.58
2018-11-23T04:12:08.814Z,101361.52
2018-11-23T04:14:36.876Z,101364.27
2018-11-23T04:17:05.098Z,101356.98
2018-11-23T04:19:33.159Z,101350.70
2018-11-23T04:22:01.220Z,101350.77
2018-11-23T04:24:29.302Z,101350.88
2018-11-23T04:26:57.314Z,101350.98
2018-11-23T04:29:25.383Z,101354.31
2018-11-23T04:31:53.582Z,101348.87
2018-11-23T04:34:21.663Z,101351.55
2018-11-23T04:36:49.709Z,101356.02
2018-11-23T04:39:17.734Z,101346.45
2018-11-23T04:41:46.450Z,101349.33
2018-11-23T04:44:13.858Z,101345.07
2018-11-23T04:46:41.930Z,101351.56
2018-11-23T04:49:09.974Z,101349.05
2018-11-23T04:51:38.023Z,101340.34
2018-11-23T04:54:06.287Z,101335.77
2018-11-23T04:56:34.328Z,101332.13
2018-11-23T04:59:02.427Z,101335.66
2018-11-23T05:01:30.466Z,101334.43
2018-11-23T05:03:58.514Z,101335.88
2018-11-23T05:06:26.571Z,101330.16
2018-11-23T05:08:54.590Z,101332.53
2018-11-23T05:11:22.683Z,101331.08
2018-11-23T05:13:50.725Z,101335.89
2018-11-23T05:16:18.794Z,101330.92
2018-11-23T05:18:46.860Z,101329.19
2018-11-23T05:21:14.925Z,101328.62
2018-11-23T05:23:42.991Z,101329.01
2018-11-23T05:26:11.014Z,101324.95
2018-11-23T05:28:39.077Z,101324.17
2018-11-23T05:31:07.115Z,101320.33
2018-11-23T05:33:35.231Z,101322.88
2018-11-23T05:36:03.275Z,101314.03
2018-11-23T05:38:31.359Z,101310.89
2018-11-23T05:40:59.392Z,101311.64
2018-11-23T05:43:27.497Z,101312.87
2018-11-23T05:45:55.564Z,101310.33
2018-11-23T05:48:26.951Z,101310.15
2018-11-23T05:50:51.710Z,101319.91
2018-11-23T05:53:19.795Z,101311.73
2018-11-23T05:55:47.823Z,101318.77
2018-11-23T05:58:15.935Z,101319.69
2018-11-23T06:00:43.972Z,101323.38
2018-11-23T06:03:12.579Z,101318.28
2018-11-23T06:05:40.559Z,101319.59
2018-11-23T06:08:08.645Z,101324.93
2018-11-23T06:10:36.744Z,101327.25
2018-11-23T06:13:04.785Z,101322.28
2018-11-23T06:15:32.875Z,101326.34
2018-11-23T06:18:00.969Z,101327.91
2018-11-23T06:20:29.024Z,101324.00
2018-11-23T06:22:57.129Z,101320.45
2018-11-23T06:25:45.468Z,101334.23
2018-11-23T06:28:13.582Z,101327.95
2018-11-23T06:30:41.622Z,101330.95
2018-11-23T06:33:32.996Z,101331.19
2018-11-23T06:36:01.124Z,101328.33
2018-11-23T06:38:29.260Z,101328.48
2018-11-23T06:40:57.334Z,101328.16
2018-11-23T06:43:25.450Z,101325.39
2018-11-23T06:45:53.532Z,101334.07
2018-11-23T06:48:21.634Z,101334.00
2018-11-23T06:50:49.690Z,101331.06
2018-11-23T06:53:17.739Z,101328.70
2018-11-23T06:55:45.819Z,101330.82
2018-11-23T06:58:13.880Z,101334.25
2018-11-23T07:00:41.952Z,101341.32
2018-11-23T07:03:10.034Z,101340.02
2018-11-23T07:05:38.118Z,101340.36
2018-11-23T07:08:07.046Z,101340.53
2018-11-23T07:10:35.116Z,101339.81
2018-11-23T07:13:03.172Z,101335.25
2018-11-23T07:15:31.250Z,101342.56
2018-11-23T07:17:59.345Z,101343.93
2018-11-23T07:20:27.405Z,101344.23
2018-11-23T07:22:55.461Z,101343.69
2018-11-23T07:25:23.473Z,101344.23
2018-11-23T07:27:51.566Z,101343.81
2018-11-23T07:30:21.169Z,101347.23
2018-11-23T07:32:49.242Z,101344.70
2018-11-23T07:35:17.303Z,101345.88
2018-11-23T07:37:45.457Z,101344.30
2018-11-23T07:40:52.565Z,101339.94
2018-11-23T07:43:20.663Z,101352.13
2018-11-23T07:45:48.960Z,101354.64
2018-11-23T07:48:17.031Z,101347.80
2018-11-23T07:50:45.087Z,101350.44
2018-11-23T07:53:13.209Z,101349.43
2018-11-23T07:55:41.289Z,101348.80
2018-11-23T07:58:09.924Z,101347.80
2018-11-23T08:00:37.978Z,101343.64
2018-11-23T08:03:06.167Z,101341.94
2018-11-23T08:05:34.207Z,101333.80
2018-11-23T08:08:02.266Z,101336.75
2018-11-23T08:10:29.474Z,101331.39
2018-11-23T08:12:57.498Z,101332.66
2018-11-23T08:15:26.706Z,101328.15
2018-11-23T08:17:54.772Z,101327.31
2018-11-23T08:20:23.881Z,101327.51
2018-11-23T08:22:51.964Z,101328.78
2018-11-23T08:25:21.262Z,101333.46
2018-11-23T08:27:50.454Z,101333.54
2018-11-23T08:30:20.752Z,101332.98
2018-11-23T08:32:48.810Z,101337.42
2018-11-23T08:35:16.868Z,101335.77
2018-11-23T08:37:44.996Z,101334.28
2018-11-23T08:40:32.243Z,101334.13
2018-11-23T08:43:00.356Z,101330.06
2018-11-23T08:45:28.410Z,101332.82
2018-11-23T08:47:56.512Z,101334.87
2018-11-23T08:50:28.802Z,101332.39
2018-11-23T08:52:56.896Z,101336.59
2018-11-23T08:58:12.942Z,101327.52
2018-11-23T09:00:41.037Z,101331.80
2018-11-23T09:03:09.111Z,101336.25
2018-11-23T09:05:37.191Z,101342.30
2018-11-23T09:08:05.632Z,101336.98
2018-11-23T09:10:33.724Z,101338.50
2018-11-23T09:13:03.286Z,101333.29
2018-11-23T09:15:31.398Z,101337.05
2018-11-23T09:17:59.476Z,101332.09
2018-11-23T09:20:27.519Z,101333.88
2018-11-23T09:22:55.594Z,101335.06
2018-11-23T09:25:24.075Z,101334.52
2018-11-23T09:27:52.349Z,101330.12
2018-11-23T09:30:21.668Z,101330.31
2018-11-23T09:32:50.560Z,101323.81
2018-11-23T09:35:18.685Z,101333.39
2018-11-23T09:37:47.219Z,101326.95
2018-11-23T09:40:16.666Z,101324.02
2018-11-23T09:42:44.743Z,101322.56
2018-11-23T09:45:15.174Z,101332.58
2018-11-23T09:47:44.084Z,101333.44
2018-11-23T09:50:13.557Z,101327.25
2018-11-23T09:52:41.966Z,101324.66
2018-11-23T09:55:10.298Z,101317.67
2018-11-23T09:57:38.732Z,101315.31
2018-11-23T10:00:27.551Z,101303.63
2018-11-23T10:02:56.479Z,101303.95
2018-11-23T10:05:25.346Z,101291.73
2018-11-23T10:07:54.988Z,101289.04
2018-11-23T10:10:23.850Z,101289.80
2018-11-23T10:12:52.282Z,101274.83
2018-11-23T10:15:21.020Z,101283.59
2018-11-23T10:17:49.108Z,101279.36
2018-11-23T10:20:36.532Z,101274.86
2018-11-23T10:23:04.799Z,101273.08
2018-11-23T10:25:34.224Z,101278.74
2018-11-23T10:28:02.268Z,101277.28
2018-11-23T10:30:31.629Z,101273.19
2018-11-23T10:33:01.022Z,101274.30
2018-11-23T10:35:29.313Z,101281.00
2018-11-23T10:38:16.496Z,101272.40
2018-11-23T10:40:44.615Z,101269.98
2018-11-23T10:43:12.657Z,101264.82
2018-11-23T10:45:40.683Z,101265.22
2018-11-23T10:48:09.237Z,101253.31
2018-11-23T10:50:38.828Z,101254.83
2018-11-23T10:53:07.251Z,101248.72
2018-11-23T10:55:36.120Z,101246.94
2018-11-23T10:58:04.339Z,101243.56
2018-11-23T11:00:51.587Z,101238.68
2018-11-23T11:03:38.906Z,101236.80
2018-11-23T11:06:26.991Z,101228.39
2018-11-23T11:08:56.453Z,101232.16
2018-11-23T11:11:24.489Z,101242.72
2018-11-23T11:13:52.575Z,101239.56
2018-11-23T11:16:20.652Z,101227.97
2018-11-23T11:18:48.678Z,101230.86
2018-11-23T11:21:16.780Z,101224.38
2018-11-23T11:23:44.806Z,101221.28
2018-11-23T11:26:12.887Z,101215.81
2018-11-23T11:28:40.919Z,101221.66
2018-11-23T11:31:13.064Z,101225.26
2018-11-23T11:33:41.101Z,101224.08
2018-11-23T11:36:09.216Z,101216.78
2018-11-23T11:38:37.277Z,101220.00
2018-11-23T11:41:05.358Z,101217.42
2018-11-23T11:43:33.412Z,101216.08
2018-11-23T11:46:01.473Z,101210.89
2018-11-23T11:48:29.552Z,101212.59
2018-11-23T11:50:57.628Z,101203.13
2018-11-23T11:57:33.087Z,101190.28
2018-11-23T12:00:00.571Z,101195.10
2018-11-23T12:02:28.053Z,101194.36
2018-11-23T12:04:55.999Z,101182.10
2018-11-23T12:07:23.932Z,101192.67
2018-11-23T12:09:51.636Z,101182.61
2018-11-23T12:12:18.971Z,101183.44
2018-11-23T12:14:46.318Z,101178.00
2018-11-23T12:17:13.815Z,101168.73
2018-11-23T12:19:41.259Z,101169.46
2018-11-23T12:22:08.610Z,101168.33
2018-11-23T12:24:36.042Z,101153.22
2018-11-23T12:27:03.355Z,101155.05
2018-11-23T12:29:30.732Z,101158.02
2018-11-23T12:31:58.156Z,101159.84
2018-11-23T12:34:25.584Z,101158.58
2018-11-23T12:36:52.964Z,101154.56
2018-11-23T12:39:20.327Z,101151.69
2018-11-23T12:41:47.674Z,101151.50
2018-11-23T12:44:15.131Z,101156.59
2018-11-23T12:46:42.520Z,101149.17
2018-11-23T12:49:09.976Z,101147.08
2018-11-23T12:51:37.392Z,101149.72
2018-11-23T12:54:05.843Z,101133.93
2018-11-23T12:56:33.278Z,101133.62
2018-11-23T12:59:00.750Z,101132.47
2018-11-23T13:01:28.218Z,101132.95
2018-11-23T13:03:55.653Z,101128.44
2018-11-23T13:06:23.117Z,101128.27
2018-11-23T13:08:50.479Z,101125.72
2018-11-23T13:11:17.989Z,101124.87
2018-11-23T13:13:45.571Z,101127.55
2018-11-23T13:16:12.923Z,101123.48
2018-11-23T13:18:40.484Z,101119.25
2018-11-23T13:21:08.005Z,101116.02
2018-11-23T13:23:35.692Z,101118.19
2018-11-23T13:26:03.070Z,101121.92
2018-11-23T13:28:30.397Z,101122.10
2018-11-23T13:30:57.769Z,101117.66
2018-11-23T13:33:25.193Z,101112.55
2018-11-23T13:35:52.568Z,101112.06
2018-11-23T13:38:19.947Z,101109.59
2018-11-23T13:40:47.299Z,101110.23
2018-11-23T13:43:14.667Z,101109.83
2018-11-23T13:45:42.028Z,101100.85
2018-11-23T13:48:09.462Z,101099.48
2018-11-23T13:50:36.895Z,101102.00
2018-11-23T13:53:04.338Z,101100.86
2018-11-23T13:55:31.680Z,101110.41
2018-11-23T13:57:59.179Z,101103.57
2018-11-23T14:00:27.936Z,101107.05
2018-11-23T14:02:55.321Z,101099.95
2018-11-23T14:05:24.092Z,101102.84
2018-11-23T14:07:52.922Z,101102.43
2018-11-23T14:10:21.549Z,101103.95
2018-11-23T14:12:49.192Z,101106.74
2018-11-23T14:15:19.099Z,101096.06
2018-11-23T14:17:47.412Z,101093.45
2018-11-23T14:20:15.760Z,101092.23
2018-11-23T14:22:43.256Z,101087.64
2018-11-23T14:25:13.040Z,101084.08
2018-11-23T14:27:41.340Z,101085.68
2018-11-23T14:30:13.299Z,101080.92
2018-11-23T14:32:40.843Z,101079.06
2018-11-23T14:35:10.725Z,101077.50
2018-11-23T14:37:38.870Z,101083.19
2018-11-23T14:40:06.989Z,101088.30
2018-11-23T14:42:34.482Z,101089.19
2018-11-23T14:45:01.955Z,101092.50
2018-11-23T14:47:29.663Z,101094.37
2018-11-23T14:49:57.049Z,101091.81
2018-11-23T14:52:24.505Z,101085.48
2018-11-23T14:54:52.189Z,101088.78
2018-11-23T14:57:19.852Z,101091.28
2018-11-23T14:59:47.301Z,101079.42
2018-11-23T15:02:15.446Z,101081.48
2018-11-23T15:04:42.932Z,101082.78
2018-11-23T15:07:10.389Z,101082.83
2018-11-23T15:09:37.794Z,101078.89
2018-11-23T15:12:05.318Z,101078.62
2018-11-23T15:14:32.729Z,101082.86
2018-11-23T15:17:00.081Z,101078.52
2018-11-23T15:19:27.632Z,101079.91
2018-11-23T15:21:54.955Z,101076.97
2018-11-23T15:24:22.360Z,101081.16
2018-11-23T15:26:49.791Z,101077.25
2018-11-23T15:29:17.136Z,101077.78
2018-11-23T15:31:44.504Z,101068.08
2018-11-23T15:34:12.044Z,101066.56
2018-11-23T15:36:39.492Z,101060.41
2018-11-23T15:39:09.346Z,101064.45
2018-11-23T15:41:37.376Z,101061.76
2018-11-23T15:44:05.429Z,101061.16
2018-11-23T15:46:32.798Z,101062.55
2018-11-23T15:49:00.198Z,101062.71
2018-11-23T15:51:27.540Z,101056.83
2018-11-23T15:53:55.145Z,101063.02
2018-11-23T15:56:23.070Z,101060.53
2018-11-23T15:58:50.391Z,101059.92
2018-11-23T16:01:17.919Z,101055.78
2018-11-23T16:03:45.400Z,101056.69
2018-11-23T16:06:12.905Z,101051.38
2018-11-23T16:08:40.338Z,101048.34
2018-11-23T16:11:07.891Z,101059.92
2018-11-23T16:13:35.963Z,101051.19
2018-11-23T16:16:03.295Z,101055.30
2018-11-23T16:18:30.713Z,101051.52
2018-11-23T16:20:58.319Z,101051.88
2018-11-23T16:23:25.781Z,101048.52
2018-11-23T16:25:53.199Z,101052.34
2018-11-23T16:28:21.189Z,101056.25
2018-11-23T16:30:49.921Z,101051.78
2018-11-23T16:33:19.266Z,101052.84
2018-11-23T16:35:46.719Z,101055.50
2018-11-23T16:38:16.661Z,101049.44
2018-11-23T16:40:46.519Z,101050.09
2018-11-23T16:43:15.191Z,101043.35
2018-11-23T16:45:43.175Z,101032.41
2018-11-23T16:48:11.730Z,101037.41
2018-11-23T16:50:39.243Z,101031.27
2018-11-23T16:53:06.716Z,101036.24
2018-11-23T16:55:34.497Z,101031.59
2018-11-23T16:58:06.431Z,101033.34
2018-11-23T17:00:35.362Z,101028.34
2018-11-23T17:03:05.132Z,101024.44
2018-11-23T17:05:34.217Z,101028.89
2018-11-23T17:08:01.722Z,101028.02
2018-11-23T17:10:29.153Z,101030.14
2018-11-23T17:12:56.680Z,101043.03
2018-11-23T17:15:26.115Z,101035.14
2018-11-23T17:17:54.140Z,101035.77
2018-11-23T17:20:23.057Z,101040.41
2018-11-23T17:22:51.572Z,101043.10
2018-11-23T17:25:20.296Z,101040.83
2018-11-23T17:27:48.482Z,101036.69
2018-11-23T17:30:18.914Z,101039.73
2018-11-23T17:32:46.442Z,101037.80
2018-11-23T17:35:14.458Z,101036.29
2018-11-23T17:37:42.272Z,101034.54
2018-11-23T17:40:11.362Z,101027.80
2018-11-23T17:42:38.779Z,101027.27
2018-11-23T17:45:09.297Z,101017.29
2018-11-23T17:47:36.766Z,101023.35
2018-11-23T17:50:06.143Z,101017.36
2018-11-23T17:52:33.460Z,101030.20
2018-11-23T17:55:00.796Z,101031.17
2018-11-23T17:57:28.254Z,101034.54
2018-11-23T17:59:55.807Z,101028.14
2018-11-23T18:02:25.603Z,101025.20
2018-11-23T18:04:53.043Z,101013.20
2018-11-23T18:07:20.461Z,101013.37
2018-11-23T18:09:47.863Z,101013.37
2018-11-23T18:12:15.791Z,101015.32
2018-11-23T18:14:43.193Z,101007.08
2018-11-23T18:17:11.724Z,101003.41
2018-11-23T18:19:39.135Z,101005.49
2018-11-23T18:22:07.407Z,100994.31
2018-11-23T18:24:34.936Z,100994.98
2018-11-23T18:27:03.020Z,100995.52
2018-11-23T18:29:30.624Z,100995.88
2018-11-23T18:31:58.104Z,100995.72
2018-11-23T18:34:25.576Z,100997.26
2018-11-23T18:36:53.095Z,100997.53
2018-11-23T18:39:20.420Z,100993.11
2018-11-23T18:41:47.776Z,100992.38
2018-11-23T18:44:15.274Z,100984.77
2018-11-23T18:46:42.661Z,100977.70
2018-11-23T18:49:10.145Z,100979.98
2018-11-23T18:51:37.586Z,100966.48
2018-11-23T18:54:05.241Z,100981.07
2018-11-23T18:56:32.619Z,100983.42
2018-11-23T18:59:00.793Z,100987.09
2018-11-23T19:01:28.302Z,100991.11
2018-11-23T19:03:55.689Z,100987.56
2018-11-23T19:06:23.129Z,100986.22
2018-11-23T19:08:50.696Z,100984.96
2018-11-23T19:11:20.183Z,100982.87
2018-11-23T19:13:47.591Z,100991.84
2018-11-23T19:16:14.967Z,100994.98
2018-11-23T19:18:42.493Z,100992.83
2018-11-23T19:21:09.901Z,100998.84
2018-11-23T19:23:37.519Z,100999.39
2018-11-23T19:26:05.344Z,100993.39
2018-11-23T19:28:32.691Z,101001.98
2018-11-23T19:31:00.054Z,101001.58
2018-11-23T19:33:27.622Z,100995.41
2018-11-23T19:35:54.983Z,100992.98
2018-11-23T19:38:22.321Z,100990.92
2018-11-23T19:40:49.772Z,100988.45
2018-11-23T19:43:17.303Z,100983.98
2018-11-23T19:45:45.552Z,100975.52
2018-11-23T19:48:12.917Z,100970.05
2018-11-23T19:50:40.391Z,100973.18
2018-11-23T19:53:07.821Z,100974.31
2018-11-23T19:55:35.350Z,100966.77
2018-11-23T19:58:02.791Z,100961.52
2018-11-23T20:00:30.191Z,100953.67
2018-11-23T20:02:57.564Z,100949.90
2018-11-23T20:05:24.939Z,100938.94
2018-11-23T20:07:54.716Z,100937.73
2018-11-23T20:10:22.910Z,100931.58
2018-11-23T20:12:51.724Z,100930.38
2018-11-23T20:15:19.270Z,100932.09
2018-11-23T20:17:47.351Z,100922.19
2018-11-23T20:20:15.794Z,100919.67
2018-11-23T20:22:43.678Z,100919.16
2018-11-23T20:25:13.414Z,100909.25
2018-11-23T20:27:40.872Z,100912.06
2018-11-23T20:30:12.739Z,100913.97
2018-11-23T20:32:40.122Z,100914.35
2018-11-23T20:35:10.417Z,100914.09
2018-11-23T20:37:37.917Z,100909.99
2018-11-23T20:40:11.241Z,100910.78
2018-11-23T20:42:38.959Z,100911.22
2018-11-23T20:45:12.640Z,100904.95
2018-11-23T20:47:40.241Z,100906.77
2018-11-23T20:50:10.343Z,100903.36
2018-11-23T20:52:38.277Z,100904.53
2018-11-23T20:55:12.124Z,100895.34
2018-11-23T20:57:39.620Z,100889.74
2018-11-23T21:00:12.349Z,100878.33
2018-11-23T21:02:39.881Z,100877.23
2018-11-23T21:05:10.482Z,100878.16
2018-11-23T21:07:38.127Z,100875.00
2018-11-23T21:10:36.944Z,100882.45
2018-11-23T21:13:04.657Z,100884.03
2018-11-23T21:15:33.965Z,100886.75
2018-11-23T21:18:02.916Z,100892.20
2018-11-23T21:20:31.396Z,100901.44
2018-11-23T21:22:58.864Z,100902.45
2018-11-23T21:25:26.362Z,100900.56
2018-11-23T21:27:54.029Z,100900.10
2018-11-23T21:30:22.654Z,100899.55
2018-11-23T21:32:50.685Z,100895.42
2018-11-23T21:35:18.524Z,100891.55
2018-11-23T21:37:45.858Z,100892.20
2018-11-23T21:40:15.385Z,100892.94
2018-11-23T21:42:42.822Z,100885.23
2018-11-23T21:45:15.456Z,100891.17
2018-11-23T21:47:43.490Z,100884.01
2018-11-23T21:50:12.155Z,100877.13
2018-11-23T21:52:39.572Z,100882.19
2018-11-23T21:55:09.100Z,100872.06
2018-11-23T21:57:36.791Z,100869.06
2018-11-23T22:00:05.337Z,100868.45
2018-11-23T22:02:32.673Z,100861.63
2018-11-23T22:05:00.081Z,100859.27
2018-11-23T22:07:27.565Z,100860.20
2018-11-23T22:09:55.049Z,100848.05
2018-11-23T22:12:22.425Z,100839.80
2018-11-23T22:14:49.885Z,100838.50
2018-11-23T22:17:17.436Z,100822.66
2018-11-23T22:19:44.763Z,100827.29
2018-11-23T22:22:12.136Z,100826.73
2018-11-23T22:24:39.649Z,100834.80
2018-11-23T22:27:07.729Z,100825.94
2018-11-23T22:29:35.231Z,100833.91
2018-11-23T22:32:02.746Z,100849.98
2018-11-23T22:34:30.165Z,100842.55
2018-11-23T22:36:57.644Z,100850.81
2018-11-23T22:39:25.061Z,100847.95
2018-11-23T22:41:52.450Z,100846.78
2018-11-23T22:44:19.982Z,100859.19
2018-11-23T22:46:48.145Z,100856.69
2018-11-23T22:49:15.672Z,100864.16
2018-11-23T22:51:43.129Z,100866.91
2018-11-23T22:54:10.459Z,100868.97
2018-11-23T22:56:37.838Z,100854.33
2018-11-23T22:59:05.575Z,100851.64
2018-11-23T23:01:32.972Z,100851.89
2018-11-23T23:04:00.366Z,100848.95
2018-11-23T23:06:27.742Z,100841.14
2018-11-23T23:08:55.104Z,100839.80
2018-11-23T23:11:22.486Z,100841.64
2018-11-23T23:13:49.936Z,100838.36
2018-11-23T23:16:17.286Z,100830.00
2018-11-23T23:18:45.344Z,100830.69
2018-11-23T23:21:12.808Z,100829.23
2018-11-23T23:23:40.242Z,100821.68
2018-11-23T23:26:07.602Z,100819.34
2018-11-23T23:28:35.037Z,100821.58
2018-11-23T23:31:02.469Z,100818.00
2018-11-23T23:33:29.831Z,100813.43
2018-11-23T23:35:57.310Z,100809.80
2018-11-23T23:38:24.973Z,100812.44
2018-11-23T23:40:52.407Z,100804.73
2018-11-23T23:43:19.833Z,100794.81
2018-11-23T23:45:47.175Z,100791.19
2018-11-23T23:48:14.581Z,100785.89
2018-11-23T23:50:41.984Z,100786.19
2018-11-23T23:53:09.468Z,100784.45
2018-11-23T23:55:36.940Z,100778.30
2018-11-23T23:58:05.067Z,100779.80
